Time;durP1;ratioP1;P1;durP2;ratioP2;P2;SDS_P1;SDS_P2;PMS_P1;PMS_P2;Temp;Humidity;BMP_temperature;BMP_pressure;BME280_temperature;BME280_humidity;BME280_pressure;Samples;Min_cycle;Max_cycle;Signal;HPM_P1;HPM_P2
2022/05/28 00:00:38;;;;;;;21.77;2.70;;;8.40;99.90;;;7.08;100.00;100481.66;4966329;28;20121;-77
2022/05/28 00:03:03;;;;;;;17.98;2.85;;;8.40;99.90;;;7.07;100.00;100483.41;4964255;28;20029;-76
2022/05/28 00:05:29;;;;;;;20.05;2.42;;;8.40;99.90;;;7.07;100.00;100479.94;4960444;28;20045;-76
2022/05/28 00:08:00;;;;;;;34.92;3.05;;;8.40;99.90;;;7.08;100.00;100479.88;4971673;28;20033;-76
2022/05/28 00:10:26;;;;;;;25.40;3.17;;;8.40;99.90;;;7.08;100.00;100469.41;4968082;28;20042;-77
2022/05/28 00:12:52;;;;;;;23.23;3.85;;;8.40;99.90;;;7.11;100.00;100469.31;4966386;28;20035;-77
2022/05/28 00:15:17;;;;;;;22.92;3.13;;;8.40;99.90;;;7.13;100.00;100471.88;4962683;28;20041;-77
2022/05/28 00:17:43;;;;;;;26.98;3.67;;;8.50;99.90;;;7.18;100.00;100464.69;5004629;28;20048;-77
2022/05/28 00:20:10;;;;;;;28.08;3.03;;;8.50;99.90;;;7.23;100.00;100457.50;4953363;28;20123;-76
2022/05/28 00:22:41;;;;;;;28.45;3.63;;;8.50;99.90;;;7.25;100.00;100447.84;4934861;28;20018;-77
2022/05/28 00:25:10;;;;;;;25.45;2.97;;;8.60;99.90;;;7.28;100.00;100436.38;4942645;28;20060;-76
2022/05/28 00:27:37;;;;;;;29.42;4.20;;;8.60;99.90;;;7.31;100.00;100450.22;4955772;28;20044;-77
2022/05/28 00:30:05;;;;;;;21.60;2.90;;;8.60;99.90;;;7.32;100.00;100440.59;4905042;28;20112;-76
2022/05/28 00:32:31;;;;;;;28.35;3.20;;;8.60;99.90;;;7.29;100.00;100436.34;4955020;28;20220;-77
2022/05/28 00:34:56;;;;;;;20.05;2.53;;;8.60;99.90;;;7.28;100.00;100436.38;4976016;28;20124;-77
2022/05/28 00:37:23;;;;;;;25.98;2.60;;;8.60;99.90;;;7.30;100.00;100447.66;4965340;28;20443;-77
2022/05/28 00:39:48;;;;;;;18.15;2.75;;;8.60;99.90;;;7.31;100.00;100436.28;5019313;28;20030;-77
2022/05/28 00:42:14;;;;;;;25.27;2.70;;;8.60;99.90;;;7.30;100.00;100445.03;4977369;28;20040;-78
2022/05/28 00:44:40;;;;;;;19.52;2.53;;;8.60;99.90;;;7.30;100.00;100452.91;4980185;28;20045;-77
2022/05/28 00:47:06;;;;;;;21.80;2.63;;;8.60;99.90;;;7.30;100.00;100459.03;4971989;28;20110;-77
2022/05/28 00:49:35;;;;;;;24.23;2.83;;;8.70;99.90;;;7.38;100.00;100459.56;4988245;28;21072;-77
2022/05/28 00:52:07;;;;;;;20.60;2.97;;;8.70;99.90;;;7.44;100.00;100444.53;4967727;28;20021;-77
2022/05/28 00:54:44;;;;;;;28.60;2.78;;;8.80;99.90;;;7.50;100.00;100445.16;4979367;28;20032;-77
2022/05/28 00:57:12;;;;;;;22.33;3.45;;;8.80;99.90;;;7.53;100.00;100444.19;4934759;28;20035;-77
2022/05/28 00:59:37;;;;;;;21.08;2.83;;;8.80;99.90;;;7.55;100.00;100451.06;4952098;28;20037;-77
2022/05/28 01:02:28;;;;;;;21.70;2.70;;;8.80;99.90;;;7.53;100.00;100465.97;4986047;28;20409;-77
2022/05/28 01:05:03;;;;;;;15.43;2.08;;;8.80;99.90;;;7.43;100.00;100461.16;4984548;28;20026;-77
2022/05/28 01:08:16;;;;;;;19.67;2.47;;;8.80;99.90;;;7.47;100.00;100460.97;4994321;28;20075;-77
2022/05/28 01:11:20;;;;;;;16.85;2.42;;;8.80;99.90;;;7.51;100.00;100457.31;4888585;28;20031;-79
2022/05/28 01:14:02;;;;;;;13.50;2.17;;;8.80;99.90;;;7.51;100.00;100453.88;4892509;28;20050;-79
2022/05/28 01:16:37;;;;;;;15.98;2.38;;;8.80;99.90;;;7.32;100.00;100456.31;4966589;28;20115;-78
2022/05/28 01:19:51;;;;;;;14.73;1.85;;;8.70;99.90;;;7.36;100.00;100452.69;4946257;28;20129;-79
2022/05/28 01:23:04;;;;;;;5.07;1.10;;;8.60;99.90;;;7.10;100.00;100456.25;4981628;28;20029;-79
2022/05/28 01:26:02;;;;;;;10.13;1.67;;;8.50;99.90;;;7.01;100.00;100470.53;4965822;28;20421;-78
2022/05/28 01:28:48;;;;;;;6.90;0.90;;;8.40;99.90;;;6.96;100.00;100459.41;4912686;28;20556;-80
2022/05/28 01:31:16;;;;;;;13.18;1.38;;;8.40;99.90;;;6.92;100.00;100436.84;4925395;28;20037;-78
2022/05/28 01:33:43;;;;;;;9.15;1.45;;;8.40;99.90;;;6.93;100.00;100428.94;4959282;28;20107;-78
2022/05/28 01:36:12;;;;;;;11.00;1.38;;;8.30;99.90;;;6.90;100.00;100423.81;4975384;28;20030;-77
2022/05/28 01:38:43;;;;;;;10.30;1.20;;;8.30;99.90;;;6.98;100.00;100428.78;4934490;28;20017;-77
2022/05/28 01:41:10;;;;;;;8.88;1.45;;;8.40;99.90;;;7.01;100.00;100422.56;4974551;28;20541;-77
2022/05/28 01:43:40;;;;;;;8.73;1.10;;;8.40;99.90;;;7.06;100.00;100415.41;4974645;28;20433;-77
2022/05/28 01:46:11;;;;;;;6.45;1.25;;;8.40;99.90;;;7.06;100.00;100404.91;4962150;28;20107;-77
2022/05/28 01:48:40;;;;;;;7.03;1.23;;;8.40;99.90;;;7.03;100.00;100413.75;4956571;28;20548;-77
2022/05/28 01:51:13;;;;;;;6.75;1.38;;;8.40;99.90;;;7.03;100.00;100408.50;5002383;28;20018;-77
2022/05/28 01:56:24;;;;;;;7.65;1.33;;;8.20;99.90;;;6.89;100.00;100405.53;4974476;28;20044;-77
2022/05/28 01:58:51;;;;;;;8.15;1.38;;;8.20;99.90;;;6.81;100.00;100412.84;4982095;28;20705;-77
2022/05/28 02:01:27;;;;;;;8.85;1.10;;;8.20;99.90;;;6.80;100.00;100403.25;4968377;28;20037;-77
2022/05/28 02:04:01;;;;;;;10.40;1.30;;;8.10;99.90;;;6.72;100.00;100400.94;4967465;28;20041;-76
2022/05/28 02:06:27;;;;;;;9.27;1.10;;;8.10;99.90;;;6.73;100.00;100398.25;4995511;28;20045;-77
2022/05/28 02:08:55;;;;;;;11.45;1.60;;;8.10;99.90;;;6.76;100.00;100392.91;4976666;28;20060;-76
2022/05/28 02:11:34;;;;;;;18.58;2.15;;;8.10;99.90;;;6.81;100.00;100387.50;4993853;28;20030;-77
2022/05/28 02:14:33;;;;;;;10.32;2.08;;;8.10;99.90;;;6.86;100.00;100384.72;4973839;28;20026;-76
2022/05/28 02:17:22;;;;;;;17.30;2.10;;;8.20;99.90;;;6.91;100.00;100374.94;4980940;28;20021;-77
2022/05/28 02:20:06;;;;;;;16.08;2.30;;;8.20;99.90;;;6.96;100.00;100386.09;4994712;28;20073;-77
2022/05/28 02:22:57;;;;;;;21.27;2.97;;;8.30;99.90;;;7.05;100.00;100377.06;4992250;28;20116;-79
2022/05/28 02:25:41;;;;;;;31.02;3.60;;;8.30;99.90;;;7.12;100.00;100384.59;4950846;28;20046;-78
2022/05/28 02:28:09;;;;;;;26.90;2.88;;;8.40;99.90;;;7.17;100.00;100373.94;4960037;28;20040;-78
2022/05/28 02:30:47;;;;;;;22.48;3.05;;;8.40;99.90;;;7.24;100.00;100370.19;4974558;28;20386;-78
2022/05/28 02:33:13;;;;;;;28.13;3.25;;;8.50;99.90;;;7.29;100.00;100375.25;4951770;28;20057;-77
2022/05/28 02:35:39;;;;;;;21.55;3.13;;;8.50;99.90;;;7.32;100.00;100368.16;4981186;28;20219;-77
2022/05/28 02:38:11;;;;;;;27.75;4.40;;;8.60;99.90;;;7.34;100.00;100374.19;4974212;28;20456;-78
2022/05/28 02:40:36;;;;;;;18.25;3.45;;;8.60;99.90;;;7.35;100.00;100367.16;4966526;28;20084;-78
2022/05/28 02:43:02;;;;;;;26.40;3.63;;;8.60;99.90;;;7.36;100.00;100359.25;4964470;28;20497;-79
2022/05/28 02:45:28;;;;;;;28.15;3.53;;;8.60;99.90;;;7.38;100.00;100365.25;4942522;28;20048;-77
2022/05/28 02:47:54;;;;;;;17.48;2.70;;;8.60;99.90;;;7.36;100.00;100368.84;4993303;28;20041;-77
2022/05/28 02:50:20;;;;;;;23.60;3.50;;;8.60;99.90;;;7.31;100.00;100360.34;4970586;28;20047;-78
2022/05/28 02:52:46;;;;;;;25.17;3.83;;;8.60;99.90;;;7.29;100.00;100362.16;5000238;28;20575;-78
2022/05/28 02:55:12;;;;;;;21.02;3.08;;;8.60;99.90;;;7.28;100.00;100363.06;4985004;28;20033;-77
2022/05/28 02:57:37;;;;;;;26.67;3.13;;;8.60;99.90;;;7.29;100.00;100365.63;4951106;28;21539;-77
2022/05/28 03:00:06;;;;;;;14.82;2.30;;;8.60;99.90;;;7.27;100.00;100362.22;4995425;28;20060;-77
2022/05/28 03:02:32;;;;;;;26.83;3.63;;;8.60;99.90;;;7.27;100.00;100358.75;4968383;28;20039;-77
2022/05/28 03:04:58;;;;;;;16.38;2.83;;;8.60;99.90;;;7.23;100.00;100355.38;4987818;28;20030;-77
2022/05/28 03:07:24;;;;;;;24.45;3.58;;;8.50;99.90;;;7.25;100.00;100357.94;4934693;28;20034;-78
2022/05/28 03:09:52;;;;;;;24.00;3.13;;;8.50;99.90;;;7.22;100.00;100355.47;4991121;28;20026;-77
2022/05/28 03:12:18;;;;;;;18.45;3.13;;;8.50;99.90;;;7.18;100.00;100366.03;4977478;28;20524;-78
2022/05/28 03:14:44;;;;;;;18.85;2.42;;;8.50;99.90;;;7.17;100.00;100360.84;4985862;28;20036;-76
2022/05/28 03:17:09;;;;;;;23.13;3.38;;;8.50;99.90;;;7.19;100.00;100370.38;4958355;28;20210;-78
2022/05/28 03:19:35;;;;;;;19.90;2.40;;;8.50;99.90;;;7.25;100.00;100355.34;4976287;28;20034;-77
2022/05/28 03:22:01;;;;;;;28.40;4.05;;;8.60;99.90;;;7.31;100.00;100355.94;4942694;28;20072;-78
2022/05/28 03:24:26;;;;;;;22.05;3.15;;;8.60;99.90;;;7.34;100.00;100353.22;4971081;28;20109;-77
2022/05/28 03:26:57;;;;;;;24.73;3.03;;;8.70;99.90;;;7.40;100.00;100350.34;4973697;28;20103;-77
2022/05/28 03:29:24;;;;;;;17.48;2.83;;;8.70;99.90;;;7.46;100.00;100345.78;4987072;28;20117;-77
2022/05/28 03:31:51;;;;;;;16.10;2.72;;;8.70;99.90;;;7.47;100.00;100355.34;4972035;28;20029;-77
2022/05/28 03:34:17;;;;;;;23.83;3.40;;;8.70;99.90;;;7.49;100.00;100341.25;4982339;28;20071;-77
2022/05/28 03:36:43;;;;;;;16.42;3.17;;;8.80;99.90;;;7.48;100.00;100350.06;4958705;28;20049;-77
2022/05/28 03:39:09;;;;;;;11.70;2.10;;;8.80;99.90;;;7.50;100.00;100342.13;5017314;28;20045;-77
2022/05/28 03:41:34;;;;;;;15.07;2.60;;;8.80;99.90;;;7.55;100.00;100359.34;4972727;28;20042;-78
2022/05/28 03:44:03;;;;;;;18.65;2.40;;;8.80;99.90;;;7.55;100.00;100359.34;4938204;28;20056;-78
2022/05/28 03:46:33;;;;;;;17.20;2.40;;;8.80;99.90;;;7.58;100.00;100356.63;4966278;28;20544;-77
2022/05/28 03:49:05;;;;;;;15.70;2.33;;;8.80;99.90;;;7.59;100.00;100360.94;4994253;28;20069;-77
2022/05/28 03:51:31;;;;;;;15.88;2.63;;;8.80;99.90;;;7.58;100.00;100364.50;4978107;28;20026;-78
2022/05/28 03:53:57;;;;;;;12.93;2.28;;;8.90;99.90;;;7.59;100.00;100360.94;4993460;28;20501;-78
2022/05/28 03:56:33;;;;;;;18.42;2.60;;;8.90;99.90;;;7.61;100.00;100366.13;4965203;28;20071;-77
2022/05/28 03:58:59;;;;;;;12.80;2.38;;;8.90;99.90;;;7.67;100.00;100365.03;4982239;28;20017;-77
2022/05/28 04:01:25;;;;;;;13.25;2.50;;;8.90;99.90;;;7.73;100.00;100356.91;4970104;28;20023;-76
2022/05/28 04:03:51;;;;;;;18.48;2.20;;;9.00;99.90;;;7.81;100.00;100354.84;4967563;28;20848;-78
2022/05/28 04:06:16;;;;;;;17.02;2.95;;;9.00;99.90;;;7.91;100.00;100366.66;4978895;28;22359;-78
2022/05/28 04:08:42;;;;;;;18.17;2.70;;;9.10;99.90;;;8.01;100.00;100367.13;4980374;28;20504;-77
2022/05/28 04:11:13;;;;;;;15.27;2.60;;;9.20;99.90;;;8.11;100.00;100362.34;4982214;28;20544;-78
2022/05/28 04:13:38;;;;;;;18.58;2.50;;;9.30;99.90;;;8.16;100.00;100360.38;5001130;28;20390;-78
2022/05/28 04:16:04;;;;;;;17.05;2.42;;;9.30;99.90;;;8.25;100.00;100367.88;4944477;28;20036;-77
2022/05/28 04:18:30;;;;;;;16.45;2.45;;;9.40;99.90;;;8.36;100.00;100381.38;4968301;28;20480;-78
2022/05/28 04:20:55;;;;;;;17.52;3.08;;;9.60;99.90;;;8.93;100.00;100372.81;4973156;28;20696;-77
2022/05/28 04:23:21;;;;;;;20.30;2.55;;;9.80;99.90;;;8.93;100.00;100383.31;4986382;28;20029;-77
2022/05/28 04:25:47;;;;;;;12.23;2.72;;;10.00;99.90;;;9.15;100.00;100380.53;4975366;28;20124;-77
2022/05/28 04:28:13;;;;;;;16.80;2.50;;;10.40;99.90;;;10.20;100.00;100369.31;4959812;28;20482;-77
2022/05/28 04:30:41;;;;;;;14.27;2.67;;;11.00;99.90;;;10.72;100.00;100380.75;4954275;28;20039;-77
2022/05/28 04:33:06;;;;;;;11.48;2.13;;;11.40;99.90;;;11.13;100.00;100390.88;4976357;28;20037;-78
2022/05/28 04:35:32;;;;;;;12.55;2.00;;;11.70;99.90;;;11.19;96.02;100380.00;4997247;28;20033;-77
2022/05/28 04:37:58;;;;;;;18.00;2.40;;;11.60;99.90;;;10.63;95.34;100374.19;4986336;28;20022;-78
2022/05/28 04:40:24;;;;;;;17.08;1.92;;;11.40;99.90;;;10.23;96.38;100370.94;4981102;28;20101;-77
2022/05/28 04:42:50;;;;;;;16.90;2.10;;;11.10;99.90;;;9.88;98.05;100376.19;4977954;28;20045;-78
2022/05/28 04:45:23;;;;;;;16.20;2.13;;;10.90;99.90;;;9.63;100.00;100379.16;4972285;28;20056;-77
2022/05/28 04:47:51;;;;;;;19.50;2.45;;;10.70;99.90;;;9.51;100.00;100380.59;4956656;28;20029;-78
2022/05/28 04:50:17;;;;;;;17.60;2.88;;;10.70;99.90;;;10.08;100.00;100377.81;4968181;28;20647;-77
2022/05/28 04:52:42;;;;;;;11.70;2.10;;;10.80;99.90;;;9.94;100.00;100378.50;4960310;28;20080;-77
2022/05/28 04:55:10;;;;;;;11.05;2.40;;;10.90;99.90;;;10.10;100.00;100375.97;4943763;28;20590;-78
2022/05/28 04:57:36;;;;;;;14.10;2.40;;;10.90;99.90;;;9.98;100.00;100377.44;4962181;28;20037;-78
2022/05/28 05:00:10;;;;;;;17.42;2.08;;;10.80;99.90;;;9.78;100.00;100382.81;4995232;28;20329;-78
2022/05/28 05:02:41;;;;;;;12.35;2.10;;;10.80;99.90;;;9.64;100.00;100381.72;4986647;28;21431;-77
2022/05/28 05:05:08;;;;;;;13.05;2.10;;;10.70;99.90;;;9.43;100.00;100383.56;4961155;28;20045;-78
2022/05/28 05:07:34;;;;;;;18.20;2.38;;;10.50;99.90;;;9.26;100.00;100385.31;4972645;28;20036;-78
2022/05/28 05:10:00;;;;;;;18.42;2.72;;;10.40;99.90;;;9.09;100.00;100379.03;4985777;28;20026;-79
2022/05/28 05:12:25;;;;;;;20.52;2.60;;;10.30;99.90;;;9.12;100.00;100378.91;4958170;28;20059;-78
2022/05/28 05:14:59;;;;;;;18.08;2.35;;;10.30;99.90;;;9.02;100.00;100375.84;5003896;28;20053;-78
2022/05/28 05:17:24;;;;;;;17.10;2.30;;;10.20;99.90;;;9.02;100.00;100380.25;4996123;28;20057;-78
2022/05/28 05:19:53;;;;;;;18.90;2.70;;;10.10;99.90;;;8.90;100.00;100383.44;4969405;28;23033;-78
2022/05/28 05:22:21;;;;;;;19.02;2.55;;;10.10;99.90;;;8.85;100.00;100382.78;4971394;28;20492;-79
2022/05/28 05:24:52;;;;;;;13.05;2.30;;;10.10;99.90;;;8.89;100.00;100379.09;4948753;28;20144;-79
2022/05/28 05:27:18;;;;;;;13.48;2.35;;;10.00;99.90;;;8.83;100.00;100378.47;4995309;28;21485;-77
2022/05/28 05:29:43;;;;;;;10.32;2.13;;;10.00;99.90;;;8.81;100.00;100379.44;4978850;28;20061;-77
2022/05/28 05:32:09;;;;;;;12.52;2.67;;;10.00;99.90;;;8.74;100.00;100386.75;4963131;28;20075;-79
2022/05/28 05:34:37;;;;;;;13.05;2.30;;;10.00;99.90;;;8.75;100.00;100385.00;4961433;28;20073;-77
2022/05/28 05:37:04;;;;;;;14.43;2.42;;;10.00;99.90;;;8.86;100.00;100381.88;4993896;28;20026;-79
2022/05/28 05:39:30;;;;;;;16.90;2.20;;;10.00;99.90;;;8.93;100.00;100385.94;4995951;28;20128;-79
2022/05/28 05:41:56;;;;;;;10.25;2.20;;;10.10;99.90;;;8.99;100.00;100383.03;4941321;28;20840;-78
2022/05/28 05:44:21;;;;;;;23.20;2.70;;;10.10;99.90;;;9.01;100.00;100392.53;4942735;28;20088;-78
2022/05/28 05:46:50;;;;;;;14.40;2.20;;;10.10;99.90;;;9.04;100.00;100389.75;4975480;28;20393;-78
2022/05/28 05:49:21;;;;;;;18.42;2.45;;;10.20;99.90;;;9.13;100.00;100387.63;4975140;28;20087;-78
2022/05/28 05:51:47;;;;;;;15.02;2.28;;;10.30;99.90;;;9.35;100.00;100377.84;4963111;28;20030;-78
2022/05/28 05:54:15;;;;;;;14.57;2.38;;;10.30;99.90;;;9.39;100.00;100391.69;4976126;28;21177;-78
2022/05/28 05:56:41;;;;;;;12.75;2.17;;;10.40;99.90;;;9.41;100.00;100385.41;4944141;28;20033;-79
2022/05/28 05:59:07;;;;;;;14.90;2.45;;;10.50;99.90;;;9.50;100.00;100384.13;4957377;28;20112;-78
2022/05/28 06:01:35;;;;;;;20.48;2.47;;;10.60;99.90;;;9.64;100.00;100380.88;4983122;28;20466;-79
2022/05/28 06:04:00;;;;;;;12.10;2.65;;;10.70;99.90;;;9.65;100.00;100390.44;4989212;28;20021;-78
2022/05/28 06:06:26;;;;;;;15.02;2.42;;;10.70;99.90;;;9.80;100.00;100394.09;4941499;28;20079;-79
2022/05/28 06:08:52;;;;;;;19.95;2.58;;;10.80;99.90;;;9.81;100.00;100388.78;4974347;28;20026;-78
2022/05/28 06:11:19;;;;;;;21.90;2.92;;;10.90;99.90;;;9.89;100.00;100393.66;4987315;28;20409;-79
2022/05/28 06:13:44;;;;;;;17.75;2.97;;;10.90;99.90;;;9.92;100.00;100393.53;4930237;28;20034;-78
2022/05/28 06:16:10;;;;;;;15.02;1.80;;;11.00;99.90;;;10.03;100.00;100393.00;4942199;28;20029;-78
2022/05/28 06:18:42;;;;;;;20.08;2.83;;;11.10;99.90;;;10.16;100.00;100393.22;4926954;28;20033;-78
2022/05/28 06:21:07;;;;;;;16.30;2.40;;;11.20;99.90;;;10.29;100.00;100389.06;4974225;28;20062;-78
2022/05/28 06:23:33;;;;;;;16.15;2.80;;;11.30;99.90;;;10.34;100.00;100387.06;4921718;28;20030;-78
2022/05/28 06:25:59;;;;;;;14.75;2.40;;;11.30;99.90;;;10.37;100.00;100389.53;5023630;28;20062;-78
2022/05/28 06:28:24;;;;;;;17.00;2.70;;;11.40;99.90;;;10.57;100.00;100392.94;4969782;28;20045;-78
2022/05/28 06:30:51;;;;;;;21.52;3.30;;;11.60;99.90;;;10.76;100.00;100391.03;4959387;28;20425;-78
2022/05/28 06:33:20;;;;;;;27.92;2.90;;;11.80;99.90;;;11.60;100.00;100400.59;4957372;28;20030;-77
2022/05/28 06:35:46;;;;;;;12.13;2.05;;;12.70;99.90;;;13.39;96.27;100401.41;5010929;28;20037;-78
2022/05/28 06:38:12;;;;;;;18.63;2.65;;;13.40;99.90;;;13.36;91.66;100398.97;4963518;28;20033;-78
2022/05/28 06:40:38;;;;;;;17.63;2.53;;;13.60;99.90;;;13.11;90.65;100403.13;4931576;28;20037;-77
2022/05/28 06:43:04;;;;;;;17.33;2.65;;;13.60;99.90;;;12.63;90.67;100402.53;4948864;28;20489;-78
2022/05/28 06:45:30;;;;;;;18.95;2.70;;;13.40;99.90;;;12.32;91.62;100404.38;4958797;28;20052;-78
2022/05/28 06:48:05;;;;;;;19.65;2.55;;;13.30;99.90;;;12.28;93.13;100397.56;4870377;28;20117;-78
2022/05/28 06:53:25;;;;;;;16.63;2.67;;;13.10;99.90;;;12.08;93.92;100390.81;4836582;28;20116;-79
2022/05/28 06:55:53;;;;;;;16.73;2.42;;;13.10;99.90;;;12.15;94.26;100394.78;4871983;28;20042;-78
2022/05/28 06:58:57;;;;;;;;;;;;;;;;;;;;;
2022/05/28 07:01:24;;;;;;;17.65;2.35;;;;;;;12.23;93.64;100407.56;4933737;28;21000;-77
2022/05/28 07:04:04;;;;;;;18.33;2.88;;;;;;;12.26;93.06;100410.00;4873955;28;20043;-78
2022/05/28 07:06:34;;;;;;;18.65;2.55;;;13.10;99.90;;;12.24;93.81;100412.72;4866864;28;20031;-77
2022/05/28 07:09:25;;;;;;;17.15;2.50;;;13.20;99.90;;;12.22;93.64;100408.47;4864154;28;20034;-79
2022/05/28 07:11:51;;;;;;;18.80;2.50;;;13.10;99.90;;;12.25;93.08;100416.25;4940995;28;20099;-77
2022/05/28 07:14:16;;;;;;;16.77;3.17;;;13.20;99.90;;;12.26;92.65;100423.22;4984577;28;20029;-77
2022/05/28 07:16:42;;;;;;;17.73;2.75;;;13.10;99.90;;;12.10;93.33;100426.75;4988761;28;20049;-78
2022/05/28 07:19:11;;;;;;;17.40;3.20;;;13.00;99.90;;;11.93;94.64;100424.22;4969562;28;20068;-78
2022/05/28 07:21:36;;;;;;;14.00;2.55;;;12.80;99.90;;;11.52;95.19;100430.00;4940532;28;20109;-76
2022/05/28 07:24:02;;;;;;;14.95;2.47;;;12.60;99.90;;;11.28;97.20;100430.41;4978462;28;20042;-75
2022/05/28 07:26:28;;;;;;;15.48;2.97;;;12.40;99.90;;;10.93;98.95;100437.56;4985014;28;20417;-79
2022/05/28 07:28:55;;;;;;;11.48;2.13;;;12.10;99.90;;;10.56;100.00;100436.84;4958427;28;20022;-76
2022/05/28 07:31:21;;;;;;;18.52;2.58;;;11.80;99.90;;;10.39;100.00;100440.31;4957506;28;20034;-79
2022/05/28 07:33:52;;;;;;;10.77;1.85;;;11.70;99.90;;;10.29;100.00;100436.44;4931698;28;21463;-80
2022/05/28 07:36:22;;;;;;;12.45;2.28;;;11.50;99.90;;;10.21;100.00;100434.16;5017344;28;20072;-80
2022/05/28 07:38:49;;;;;;;18.58;3.03;;;11.40;99.90;;;10.02;100.00;100428.09;4978936;28;20582;-81
2022/05/28 07:41:22;;;;;;;13.38;3.17;;;11.30;99.90;;;9.82;100.00;100447.47;4970787;28;20049;-81
2022/05/28 07:43:50;;;;;;;5.47;1.50;;;11.10;99.90;;;9.57;100.00;100435.50;4914482;28;20041;-81
2022/05/28 07:46:25;;;;;;;27.33;3.30;;;11.00;99.90;;;9.75;100.00;100444.28;4936511;28;20022;-80
2022/05/28 07:48:52;;;;;;;9.10;1.65;;;11.00;99.90;;;9.68;100.00;100439.41;4955255;28;20051;-81
2022/05/28 07:51:18;;;;;;;12.88;2.05;;;11.00;99.90;;;9.59;100.00;100438.91;4943549;28;20592;-81
2022/05/28 07:53:44;;;;;;;14.68;2.28;;;10.90;99.90;;;9.68;100.00;100449.94;4924219;28;20029;-80
2022/05/28 07:56:10;;;;;;;20.35;2.80;;;10.90;99.90;;;9.60;100.00;100456.38;4972273;28;20381;-80
2022/05/28 07:58:41;;;;;;;20.25;3.22;;;10.90;99.90;;;9.70;100.00;100454.19;4983301;28;20109;-81
2022/05/28 08:01:24;;;;;;;16.40;2.85;;;10.90;99.90;;;9.90;100.00;100455.00;4966388;28;20045;-81
2022/05/28 08:03:52;;;;;;;18.83;3.13;;;11.10;99.90;;;10.10;100.00;100454.88;4950213;28;20032;-81
2022/05/28 08:06:31;;;;;;;17.20;2.78;;;11.20;99.90;;;10.28;100.00;100455.78;4910205;28;20025;-80
2022/05/28 08:08:57;;;;;;;13.20;2.30;;;11.40;99.90;;;10.30;100.00;100451.28;4916776;28;20088;-80
2022/05/28 08:11:26;;;;;;;16.73;3.28;;;11.50;99.90;;;10.56;100.00;100457.03;4947788;28;20612;-80
2022/05/28 08:13:54;;;;;;;18.65;2.75;;;11.50;99.90;;;10.63;100.00;100463.72;4934629;28;20037;-81
2022/05/28 08:16:20;;;;;;;16.33;2.38;;;11.60;99.90;;;10.52;100.00;100477.41;4933197;28;20160;-81
2022/05/28 08:18:47;;;;;;;22.48;3.15;;;11.60;99.90;;;10.54;100.00;100465.03;4948271;28;20030;-81
2022/05/28 08:24:08;;;;;;;16.20;2.65;;;11.70;99.90;;;10.59;100.00;100467.44;4863490;28;20055;-80
2022/05/28 08:26:42;;;;;;;15.70;2.65;;;11.70;99.90;;;10.69;100.00;100473.94;4968743;28;20494;-80
2022/05/28 08:29:07;;;;;;;22.02;3.90;;;11.80;99.90;;;10.79;100.00;100485.69;4953100;28;20038;-79
2022/05/28 08:31:33;;;;;;;25.77;3.55;;;11.90;99.90;;;10.95;100.00;100487.53;4958028;28;20326;-79
2022/05/28 08:33:59;;;;;;;20.10;3.42;;;12.00;99.90;;;11.19;100.00;100488.88;4986410;28;20135;-79
2022/05/28 08:36:25;;;;;;;23.08;3.13;;;12.20;99.90;;;11.61;100.00;100486.66;4970992;28;20147;-78
2022/05/28 08:38:51;;;;;;;30.83;3.70;;;12.50;99.90;;;12.17;100.00;100492.38;4961850;28;20120;-80
2022/05/28 08:41:52;;;;;;;28.15;3.92;;;13.00;99.90;;;12.93;100.00;100493.16;4935453;28;20119;-79
2022/05/28 08:44:23;;;;;;;18.73;3.60;;;13.50;99.90;;;13.22;100.00;100501.13;4958470;28;20021;-80
2022/05/28 08:47:04;;;;;;;17.90;3.15;;;13.70;99.90;;;13.29;100.00;100506.91;4963762;28;20139;-81
2022/05/28 08:49:31;;;;;;;15.65;3.00;;;13.80;99.90;;;13.16;99.28;100504.16;4984631;28;20030;-81
2022/05/28 08:52:26;;;;;;;22.55;3.20;;;14.00;99.90;;;13.52;98.37;100509.00;5018909;28;20494;-79
2022/05/28 08:55:22;;;;;;;15.93;2.92;;;14.20;99.90;;;13.71;97.99;100513.13;4954952;28;20051;-79
2022/05/28 08:57:54;;;;;;;23.88;3.35;;;14.30;99.90;;;13.71;97.20;100514.00;4946242;28;20026;-80
2022/05/28 09:00:43;;;;;;;24.05;3.78;;;14.30;99.90;;;13.64;96.56;100517.94;4964445;28;20054;-79
2022/05/28 09:03:18;;;;;;;21.30;3.38;;;14.50;99.90;;;13.95;97.17;100524.81;4974367;23;20042;-79
2022/05/28 09:06:04;;;;;;;24.38;2.85;;;14.60;99.90;;;14.09;95.14;100528.38;4983713;28;20025;-79
2022/05/28 09:08:49;;;;;;;21.77;3.05;;;14.90;99.90;;;14.65;95.74;100530.94;4966299;28;20034;-78
2022/05/28 09:12:02;;;;;;;19.27;3.50;;;15.30;99.90;;;15.45;97.25;100530.78;4965794;28;20030;-78
2022/05/28 09:14:38;;;;;;;21.80;3.63;;;15.90;99.90;;;15.85;95.73;100527.97;4979077;28;20092;-79
2022/05/28 09:17:24;;;;;;;20.48;3.40;;;16.20;99.90;;;15.76;90.27;100534.78;4947078;28;20034;-79
2022/05/28 09:20:00;;;;;;;17.47;2.80;;;16.00;99.90;;;14.78;85.45;100523.84;4961851;28;20065;-78
2022/05/28 09:22:26;;;;;;;14.73;1.90;;;15.50;99.90;;;14.11;86.04;100532.59;4946283;28;20030;-77
2022/05/28 09:24:52;;;;;;;15.32;2.28;;;15.20;99.90;;;13.84;87.92;100543.16;4982787;28;20053;-80
2022/05/28 09:27:54;;;;;;;15.23;2.40;;;14.90;99.90;;;13.66;87.64;100531.09;4979410;28;20030;-80
2022/05/28 09:30:56;;;;;;;5.93;1.70;;;14.60;99.90;;;13.36;87.79;100526.75;4951321;28;20031;-80
2022/05/28 09:34:10;;;;;;;16.67;2.50;;;14.30;99.90;;;13.02;87.47;100531.41;4951512;28;20044;-80
2022/05/28 09:37:08;;;;;;;10.38;2.05;;;14.20;99.90;;;13.15;88.94;100542.09;4921241;28;20139;-80
2022/05/28 09:40:18;;;;;;;8.35;1.90;;;14.50;99.90;;;13.98;91.99;100547.59;4963244;28;20080;-80
2022/05/28 09:43:21;;;;;;;14.15;2.67;;;15.00;99.90;;;14.74;87.14;100551.50;4913350;28;20027;-80
2022/05/28 09:46:27;;;;;;;17.73;2.53;;;15.40;99.90;;;14.87;82.86;100544.44;4945706;28;20393;-80
2022/05/28 09:49:24;;;;;;;20.55;2.78;;;15.40;99.90;;;14.44;79.76;100557.00;4959561;28;20052;-81
2022/05/28 09:52:09;;;;;;;12.27;2.13;;;15.20;99.90;;;13.95;81.43;100548.63;4918599;28;20034;-79
2022/05/28 09:54:38;;;;;;;9.38;2.03;;;14.90;99.90;;;13.58;81.78;100565.09;4946888;28;20436;-79
2022/05/28 09:57:29;;;;;;;11.57;2.20;;;14.70;99.90;;;13.41;82.46;100568.78;4950187;28;20152;-80
2022/05/28 10:00:13;;;;;;;16.55;2.42;;;14.60;99.90;;;13.67;83.86;100562.75;5027087;28;20513;-78
2022/05/28 10:04:28;;;;;;;11.50;1.60;;;14.70;99.90;;;13.70;82.05;100564.34;4956783;23;20042;-80
2022/05/28 10:05:58;;;;;;;12.18;2.65;;;14.80;99.90;;;14.02;82.28;100562.31;4865896;28;20039;-80
2022/05/28 10:08:35;;;;;;;16.02;2.33;;;15.10;99.90;;;14.58;84.46;100575.53;4879343;28;20026;-79
2022/05/28 10:11:12;;;;;;;13.85;2.30;;;15.30;99.90;;;14.64;80.88;100561.84;4940857;28;20113;-78
2022/05/28 10:13:44;;;;;;;;;;;15.40;99.90;;;14.78;79.88;100574.22;4931877;28;20522;-79
2022/05/28 10:16:21;;;;;;;10.85;2.03;;;15.40;99.90;;;14.57;77.00;100579.13;4920487;28;19925;-80
2022/05/28 10:19:01;;;;;;;19.00;3.45;;;15.70;99.90;;;15.22;79.11;100580.94;4916545;28;20034;-80
2022/05/28 10:21:47;;;;;;;19.83;3.00;;;15.90;99.90;;;15.39;76.77;100585.94;4884264;28;20034;-79
2022/05/28 10:24:34;;;;;;;20.40;2.40;;;16.00;99.90;;;15.17;75.10;100586.56;4873571;23;20565;-80
2022/05/28 10:27:05;;;;;;;;;;;16.00;99.90;;;15.17;75.82;100581.28;4899444;28;20172;-80
2022/05/28 10:29:56;;;;;;;;;;;;;;;;;;;;;
2022/05/28 10:32:55;;;;;;;10.00;1.90;;;16.10;99.90;;;15.52;75.78;100598.38;4848060;28;20413;-79
2022/05/28 10:35:44;;;;;;;14.60;1.85;;;;;;;15.99;72.68;100595.06;4870732;28;20028;-80
2022/05/28 10:38:36;;;;;;;12.75;2.58;;;16.50;99.90;;;16.02;73.17;100609.09;4886875;28;20052;-82
2022/05/28 10:41:36;;;;;;;;;;;;;;;;;;;;;
2022/05/28 10:44:05;;;;;;;18.83;2.47;;;17.20;99.90;;;16.77;69.08;100617.75;4958509;23;20045;-81